sensor_id;sensor_type;location;lat;lon;timestamp;pressure;altitude;pressure_sealevel;temperature;humidity
79075;BME280;68476;42.710;23.388;2023-07-29T00:00:38;95429.66;;;15.71;69.27
79075;BME280;68476;42.710;23.388;2023-07-29T00:03:03;95428.53;;;15.67;69.52
79075;BME280;68476;42.710;23.388;2023-07-29T00:05:29;95427.09;;;15.97;68.25
79075;BME280;68476;42.710;23.388;2023-07-29T00:07:54;95434.47;;;15.92;70.67
79075;BME280;68476;42.710;23.388;2023-07-29T00:10:19;95441.63;;;15.93;69.61
79075;BME280;68476;42.710;23.388;2023-07-29T00:12:45;95435.91;;;15.99;70.11
79075;BME280;68476;42.710;23.388;2023-07-29T00:15:11;95435.63;;;16.01;68.88
79075;BME280;68476;42.710;23.388;2023-07-29T00:17:36;95443.88;;;16.01;69.96
79075;BME280;68476;42.710;23.388;2023-07-29T00:20:02;95437.84;;;15.99;69.52
79075;BME280;68476;42.710;23.388;2023-07-29T00:22:27;95441.06;;;15.85;69.63
79075;BME280;68476;42.710;23.388;2023-07-29T00:24:53;95432.72;;;15.75;69.89
79075;BME280;68476;42.710;23.388;2023-07-29T00:27:23;95428.16;;;15.53;71.00
79075;BME280;68476;42.710;23.388;2023-07-29T00:29:49;95435.72;;;15.36;70.34
79075;BME280;68476;42.710;23.388;2023-07-29T00:32:14;95429.44;;;15.40;70.22
79075;BME280;68476;42.710;23.388;2023-07-29T00:34:40;95426.28;;;15.59;69.46
79075;BME280;68476;42.710;23.388;2023-07-29T00:37:05;95434.66;;;15.37;70.02
79075;BME280;68476;42.710;23.388;2023-07-29T00:39:31;95424.53;;;15.10;72.42
79075;BME280;68476;42.710;23.388;2023-07-29T00:41:57;95426.25;;;15.16;72.20
79075;BME280;68476;42.710;23.388;2023-07-29T00:44:22;95425.75;;;15.24;73.06
79075;BME280;68476;42.710;23.388;2023-07-29T00:46:50;95418.25;;;15.47;73.04
79075;BME280;68476;42.710;23.388;2023-07-29T00:49:17;95423.16;;;15.40;73.77
79075;BME280;68476;42.710;23.388;2023-07-29T00:51:42;95431.06;;;15.36;74.01
79075;BME280;68476;42.710;23.388;2023-07-29T00:54:08;95424.19;;;15.34;73.07
79075;BME280;68476;42.710;23.388;2023-07-29T00:56:33;95419.25;;;15.36;73.55
79075;BME280;68476;42.710;23.388;2023-07-29T00:58:59;95421.63;;;15.60;72.46
79075;BME280;68476;42.710;23.388;2023-07-29T01:01:27;95428.84;;;15.71;72.78
79075;BME280;68476;42.710;23.388;2023-07-29T01:03:53;95424.09;;;15.61;71.63
79075;BME280;68476;42.710;23.388;2023-07-29T01:09:12;95421.84;;;14.60;73.80
79075;BME280;68476;42.710;23.388;2023-07-29T01:11:50;95414.38;;;14.78;71.86
79075;BME280;68476;42.710;23.388;2023-07-29T01:17:03;95417.25;;;14.93;70.44
79075;BME280;68476;42.710;23.388;2023-07-29T01:20:00;95421.66;;;14.94;70.50
79075;BME280;68476;42.710;23.388;2023-07-29T01:22:29;95421.56;;;15.17;69.83
79075;BME280;68476;42.710;23.388;2023-07-29T01:24:56;95423.38;;;15.06;69.95
79075;BME280;68476;42.710;23.388;2023-07-29T01:27:22;95424.09;;;14.91;69.88
79075;BME280;68476;42.710;23.388;2023-07-29T01:29:47;95423.50;;;14.89;69.65
79075;BME280;68476;42.710;23.388;2023-07-29T01:32:26;95426.81;;;14.86;69.93
79075;BME280;68476;42.710;23.388;2023-07-29T01:35:00;95429.75;;;14.79;70.38
79075;BME280;68476;42.710;23.388;2023-07-29T01:37:30;95425.81;;;14.70;70.74
79075;BME280;68476;42.710;23.388;2023-07-29T01:39:58;95428.19;;;14.39;71.26
79075;BME280;68476;42.710;23.388;2023-07-29T01:42:25;95421.63;;;14.17;72.21
79075;BME280;68476;42.710;23.388;2023-07-29T01:44:51;95420.56;;;13.96;73.66
79075;BME280;68476;42.710;23.388;2023-07-29T01:47:16;95421.31;;;14.14;72.88
79075;BME280;68476;42.710;23.388;2023-07-29T01:49:42;95427.25;;;14.28;71.56
79075;BME280;68476;42.710;23.388;2023-07-29T01:52:07;95425.00;;;14.25;72.47
79075;BME280;68476;42.710;23.388;2023-07-29T01:54:33;95421.63;;;14.40;72.27
79075;BME280;68476;42.710;23.388;2023-07-29T01:56:58;95416.28;;;14.77;70.79
79075;BME280;68476;42.710;23.388;2023-07-29T01:59:23;95414.63;;;14.76;70.69
79075;BME280;68476;42.710;23.388;2023-07-29T02:01:49;95422.59;;;14.78;70.77
79075;BME280;68476;42.710;23.388;2023-07-29T02:04:14;95424.56;;;14.83;70.47
79075;BME280;68476;42.710;23.388;2023-07-29T02:06:40;95430.41;;;14.64;70.86
79075;BME280;68476;42.710;23.388;2023-07-29T02:09:05;95429.28;;;14.65;70.58
79075;BME280;68476;42.710;23.388;2023-07-29T02:11:30;95433.50;;;14.73;69.94
79075;BME280;68476;42.710;23.388;2023-07-29T02:13:56;95438.63;;;14.64;70.74
79075;BME280;68476;42.710;23.388;2023-07-29T02:16:22;95438.34;;;14.16;72.73
79075;BME280;68476;42.710;23.388;2023-07-29T02:18:50;95444.13;;;13.97;74.44
79075;BME280;68476;42.710;23.388;2023-07-29T02:21:16;95435.72;;;14.04;73.94
79075;BME280;68476;42.710;23.388;2023-07-29T02:23:42;95441.69;;;14.23;73.31
79075;BME280;68476;42.710;23.388;2023-07-29T02:26:07;95431.22;;;14.42;72.80
79075;BME280;68476;42.710;23.388;2023-07-29T02:28:32;95437.38;;;14.49;72.14
79075;BME280;68476;42.710;23.388;2023-07-29T02:31:19;95435.72;;;14.48;71.87
79075;BME280;68476;42.710;23.388;2023-07-29T02:33:45;95438.19;;;14.50;72.23
79075;BME280;68476;42.710;23.388;2023-07-29T02:36:12;95428.75;;;14.41;72.59
79075;BME280;68476;42.710;23.388;2023-07-29T02:38:38;95430.63;;;14.35;72.41
79075;BME280;68476;42.710;23.388;2023-07-29T02:41:03;95440.69;;;14.29;72.49
79075;BME280;68476;42.710;23.388;2023-07-29T02:43:28;95442.94;;;14.32;72.95
79075;BME280;68476;42.710;23.388;2023-07-29T02:45:54;95445.97;;;14.14;73.09
79075;BME280;68476;42.710;23.388;2023-07-29T02:48:19;95438.25;;;13.89;73.73
79075;BME280;68476;42.710;23.388;2023-07-29T02:50:44;95446.78;;;13.92;73.76
79075;BME280;68476;42.710;23.388;2023-07-29T02:53:10;95445.91;;;14.09;73.67
79075;BME280;68476;42.710;23.388;2023-07-29T02:55:35;95448.34;;;14.05;73.97
79075;BME280;68476;42.710;23.388;2023-07-29T02:58:04;95450.50;;;14.03;73.23
79075;BME280;68476;42.710;23.388;2023-07-29T03:00:31;95448.53;;;13.98;73.36
79075;BME280;68476;42.710;23.388;2023-07-29T03:02:56;95448.84;;;14.02;73.16
79075;BME280;68476;42.710;23.388;2023-07-29T03:05:22;95450.50;;;14.03;73.43
79075;BME280;68476;42.710;23.388;2023-07-29T03:07:47;95451.28;;;13.98;73.25
79075;BME280;68476;42.710;23.388;2023-07-29T03:10:13;95437.34;;;13.83;73.03
79075;BME280;68476;42.710;23.388;2023-07-29T03:12:39;95463.81;;;13.94;72.88
79075;BME280;68476;42.710;23.388;2023-07-29T03:15:05;95466.56;;;13.94;72.80
79075;BME280;68476;42.710;23.388;2023-07-29T03:17:30;95462.16;;;13.93;72.81
79075;BME280;68476;42.710;23.388;2023-07-29T03:19:56;95467.00;;;13.86;72.44
79075;BME280;68476;42.710;23.388;2023-07-29T03:22:21;95469.16;;;13.84;72.79
79075;BME280;68476;42.710;23.388;2023-07-29T03:24:47;95463.84;;;13.77;73.35
79075;BME280;68476;42.710;23.388;2023-07-29T03:27:12;95458.69;;;13.81;72.48
79075;BME280;68476;42.710;23.388;2023-07-29T03:29:40;95462.81;;;13.83;72.95
79075;BME280;68476;42.710;23.388;2023-07-29T03:32:05;95457.13;;;13.85;72.44
79075;BME280;68476;42.710;23.388;2023-07-29T03:34:31;95464.56;;;13.90;72.96
79075;BME280;68476;42.710;23.388;2023-07-29T03:36:57;95466.28;;;13.96;72.91
79075;BME280;68476;42.710;23.388;2023-07-29T03:39:22;95468.66;;;13.87;73.33
79075;BME280;68476;42.710;23.388;2023-07-29T03:41:48;95473.09;;;13.93;73.31
79075;BME280;68476;42.710;23.388;2023-07-29T03:44:13;95468.84;;;14.02;72.44
79075;BME280;68476;42.710;23.388;2023-07-29T03:46:39;95470.59;;;14.09;72.09
79075;BME280;68476;42.710;23.388;2023-07-29T03:49:04;95467.97;;;14.19;72.04
79075;BME280;68476;42.710;23.388;2023-07-29T03:51:30;95472.38;;;14.20;72.00
79075;BME280;68476;42.710;23.388;2023-07-29T03:53:55;95464.91;;;14.38;71.49
79075;BME280;68476;42.710;23.388;2023-07-29T03:56:20;95469.09;;;14.45;71.15
79075;BME280;68476;42.710;23.388;2023-07-29T03:58:46;95458.44;;;14.49;70.88
79075;BME280;68476;42.710;23.388;2023-07-29T04:01:13;95457.56;;;14.66;70.10
79075;BME280;68476;42.710;23.388;2023-07-29T04:03:38;95454.06;;;14.48;71.00
79075;BME280;68476;42.710;23.388;2023-07-29T04:06:04;95454.81;;;14.43;71.83
79075;BME280;68476;42.710;23.388;2023-07-29T04:08:29;95461.06;;;14.61;71.81
79075;BME280;68476;42.710;23.388;2023-07-29T04:10:55;95464.25;;;14.75;70.62
79075;BME280;68476;42.710;23.388;2023-07-29T04:13:20;95462.56;;;14.69;71.55
79075;BME280;68476;42.710;23.388;2023-07-29T04:15:46;95467.06;;;14.80;70.45
79075;BME280;68476;42.710;23.388;2023-07-29T04:18:11;95476.72;;;14.88;70.78
79075;BME280;68476;42.710;23.388;2023-07-29T04:20:36;95470.09;;;15.11;69.88
79075;BME280;68476;42.710;23.388;2023-07-29T04:23:02;95472.78;;;15.06;69.55
79075;BME280;68476;42.710;23.388;2023-07-29T04:25:27;95467.41;;;15.16;70.06
79075;BME280;68476;42.710;23.388;2023-07-29T04:27:53;95462.09;;;15.37;69.60
79075;BME280;68476;42.710;23.388;2023-07-29T04:30:19;95467.44;;;15.54;68.35
79075;BME280;68476;42.710;23.388;2023-07-29T04:32:45;95465.97;;;15.41;69.22
79075;BME280;68476;42.710;23.388;2023-07-29T04:35:13;95469.69;;;15.62;68.65
79075;BME280;68476;42.710;23.388;2023-07-29T04:37:39;95465.91;;;15.68;68.60
79075;BME280;68476;42.710;23.388;2023-07-29T04:40:06;95454.72;;;15.80;68.47
79075;BME280;68476;42.710;23.388;2023-07-29T04:42:32;95474.13;;;16.06;66.75
79075;BME280;68476;42.710;23.388;2023-07-29T04:44:57;95466.75;;;16.12;66.75
79075;BME280;68476;42.710;23.388;2023-07-29T04:47:23;95468.69;;;16.16;66.43
79075;BME280;68476;42.710;23.388;2023-07-29T04:49:48;95473.63;;;16.09;66.49
79075;BME280;68476;42.710;23.388;2023-07-29T04:52:14;95475.56;;;16.19;65.68
79075;BME280;68476;42.710;23.388;2023-07-29T04:54:40;95472.66;;;16.46;64.94
79075;BME280;68476;42.710;23.388;2023-07-29T04:57:06;95479.31;;;16.61;65.16
79075;BME280;68476;42.710;23.388;2023-07-29T04:59:31;95481.56;;;16.69;63.90
79075;BME280;68476;42.710;23.388;2023-07-29T05:01:56;95480.03;;;17.09;62.61
79075;BME280;68476;42.710;23.388;2023-07-29T05:04:22;95482.22;;;16.97;63.38
79075;BME280;68476;42.710;23.388;2023-07-29T05:06:48;95488.03;;;17.16;62.70
79075;BME280;68476;42.710;23.388;2023-07-29T05:09:14;95487.13;;;16.90;62.87
79075;BME280;68476;42.710;23.388;2023-07-29T05:11:41;95494.34;;;17.01;62.94
79075;BME280;68476;42.710;23.388;2023-07-29T05:14:07;95486.13;;;17.22;61.69
79075;BME280;68476;42.710;23.388;2023-07-29T05:16:34;95487.47;;;17.04;62.38
79075;BME280;68476;42.710;23.388;2023-07-29T05:18:59;95487.81;;;17.38;61.49
79075;BME280;68476;42.710;23.388;2023-07-29T05:21:24;95489.44;;;17.65;60.50
79075;BME280;68476;42.710;23.388;2023-07-29T05:23:50;95489.16;;;17.25;61.65
79075;BME280;68476;42.710;23.388;2023-07-29T05:26:15;95490.81;;;17.63;60.71
79075;BME280;68476;42.710;23.388;2023-07-29T05:28:40;95490.50;;;18.16;58.92
79075;BME280;68476;42.710;23.388;2023-07-29T05:31:06;95496.25;;;18.40;58.19
79075;BME280;68476;42.710;23.388;2023-07-29T05:33:31;95493.22;;;18.42;57.49
79075;BME280;68476;42.710;23.388;2023-07-29T05:35:57;95493.25;;;18.31;57.87
79075;BME280;68476;42.710;23.388;2023-07-29T05:38:22;95502.00;;;18.54;58.21
79075;BME280;68476;42.710;23.388;2023-07-29T05:40:48;95496.47;;;18.49;58.60
79075;BME280;68476;42.710;23.388;2023-07-29T05:43:14;95491.72;;;18.70;57.53
79075;BME280;68476;42.710;23.388;2023-07-29T05:45:40;95497.22;;;18.75;57.22
79075;BME280;68476;42.710;23.388;2023-07-29T05:48:05;95499.25;;;19.15;55.92
79075;BME280;68476;42.710;23.388;2023-07-29T05:50:31;95498.53;;;18.83;57.00
79075;BME280;68476;42.710;23.388;2023-07-29T05:52:56;95499.63;;;18.98;56.00
79075;BME280;68476;42.710;23.388;2023-07-29T05:55:22;95499.56;;;19.08;56.63
79075;BME280;68476;42.710;23.388;2023-07-29T05:57:47;95505.41;;;19.41;55.32
79075;BME280;68476;42.710;23.388;2023-07-29T06:00:12;95494.66;;;18.94;56.05
79075;BME280;68476;42.710;23.388;2023-07-29T06:02:38;95501.06;;;19.30;54.88
79075;BME280;68476;42.710;23.388;2023-07-29T06:05:04;95492.75;;;19.40;55.21
79075;BME280;68476;42.710;23.388;2023-07-29T06:07:30;95482.50;;;19.75;53.34
79075;BME280;68476;42.710;23.388;2023-07-29T06:09:57;95484.53;;;19.64;53.67
79075;BME280;68476;42.710;23.388;2023-07-29T06:12:23;95484.19;;;20.06;52.69
79075;BME280;68476;42.710;23.388;2023-07-29T06:14:48;95487.00;;;20.00;52.96
79075;BME280;68476;42.710;23.388;2023-07-29T06:17:13;95481.88;;;19.83;53.89
79075;BME280;68476;42.710;23.388;2023-07-29T06:19:39;95491.22;;;20.22;52.97
79075;BME280;68476;42.710;23.388;2023-07-29T06:22:04;95484.63;;;20.67;51.91
79075;BME280;68476;42.710;23.388;2023-07-29T06:24:31;95479.38;;;20.65;51.54
79075;BME280;68476;42.710;23.388;2023-07-29T06:26:56;95478.97;;;20.53;51.21
79075;BME280;68476;42.710;23.388;2023-07-29T06:29:21;95473.13;;;20.54;51.16
79075;BME280;68476;42.710;23.388;2023-07-29T06:31:47;95478.19;;;20.71;51.16
79075;BME280;68476;42.710;23.388;2023-07-29T06:34:12;95480.81;;;21.06;50.12
79075;BME280;68476;42.710;23.388;2023-07-29T06:36:37;95477.75;;;20.64;50.98
79075;BME280;68476;42.710;23.388;2023-07-29T06:39:03;95474.66;;;20.66;51.23
79075;BME280;68476;42.710;23.388;2023-07-29T06:41:28;95459.56;;;21.01;50.07
79075;BME280;68476;42.710;23.388;2023-07-29T06:43:53;95460.47;;;21.16;49.57
79075;BME280;68476;42.710;23.388;2023-07-29T06:46:19;95459.91;;;20.75;50.60
79075;BME280;68476;42.710;23.388;2023-07-29T06:48:44;95460.00;;;21.08;49.38
79075;BME280;68476;42.710;23.388;2023-07-29T06:51:09;95458.34;;;21.27;48.79
79075;BME280;68476;42.710;23.388;2023-07-29T06:53:35;95457.09;;;21.19;49.22
79075;BME280;68476;42.710;23.388;2023-07-29T06:56:01;95453.63;;;21.46;48.53
79075;BME280;68476;42.710;23.388;2023-07-29T06:58:27;95449.69;;;21.99;47.68
79075;BME280;68476;42.710;23.388;2023-07-29T07:00:52;95446.25;;;22.08;47.26
79075;BME280;68476;42.710;23.388;2023-07-29T07:03:17;95453.44;;;22.37;46.21
79075;BME280;68476;42.710;23.388;2023-07-29T07:05:43;95456.13;;;22.28;46.54
79075;BME280;68476;42.710;23.388;2023-07-29T07:08:08;95457.63;;;22.53;45.79
79075;BME280;68476;42.710;23.388;2023-07-29T07:10:34;95455.53;;;22.73;45.10
79075;BME280;68476;42.710;23.388;2023-07-29T07:12:59;95454.31;;;22.51;45.65
79075;BME280;68476;42.710;23.388;2023-07-29T07:15:25;95453.59;;;22.45;45.13
79075;BME280;68476;42.710;23.388;2023-07-29T07:17:51;95450.47;;;22.19;46.34
79075;BME280;68476;42.710;23.388;2023-07-29T07:20:16;95457.22;;;22.46;45.71
79075;BME280;68476;42.710;23.388;2023-07-29T07:22:41;95457.69;;;22.90;44.69
79075;BME280;68476;42.710;23.388;2023-07-29T07:25:07;95461.44;;;23.08;43.90
79075;BME280;68476;42.710;23.388;2023-07-29T07:27:33;95450.66;;;23.06;43.59
79075;BME280;68476;42.710;23.388;2023-07-29T07:29:58;95445.47;;;23.14;44.62
79075;BME280;68476;42.710;23.388;2023-07-29T07:32:23;95448.56;;;22.61;45.12
79075;BME280;68476;42.710;23.388;2023-07-29T07:34:49;95446.03;;;22.88;44.90
79075;BME280;68476;42.710;23.388;2023-07-29T07:37:15;95444.78;;;23.22;43.93
79075;BME280;68476;42.710;23.388;2023-07-29T07:39:41;95441.44;;;23.34;43.56
79075;BME280;68476;42.710;23.388;2023-07-29T07:42:06;95437.66;;;23.52;43.29
79075;BME280;68476;42.710;23.388;2023-07-29T07:44:31;95435.91;;;23.57;43.14
79075;BME280;68476;42.710;23.388;2023-07-29T07:46:57;95429.06;;;24.08;41.69
79075;BME280;68476;42.710;23.388;2023-07-29T07:49:22;95429.34;;;23.98;41.44
79075;BME280;68476;42.710;23.388;2023-07-29T07:51:48;95436.91;;;24.38;41.01
79075;BME280;68476;42.710;23.388;2023-07-29T07:54:13;95435.25;;;24.05;40.94
79075;BME280;68476;42.710;23.388;2023-07-29T07:56:39;95438.69;;;23.57;41.71
79075;BME280;68476;42.710;23.388;2023-07-29T07:59:04;95434.66;;;24.17;41.10
79075;BME280;68476;42.710;23.388;2023-07-29T08:01:36;95435.81;;;24.56;41.55
79075;BME280;68476;42.710;23.388;2023-07-29T08:04:02;95443.28;;;24.79;40.62
79075;BME280;68476;42.710;23.388;2023-07-29T08:06:28;95435.09;;;24.82;40.48
79075;BME280;68476;42.710;23.388;2023-07-29T08:08:53;95439.41;;;25.06;40.64
79075;BME280;68476;42.710;23.388;2023-07-29T08:11:18;95432.22;;;25.14;39.56
79075;BME280;68476;42.710;23.388;2023-07-29T08:13:44;95437.06;;;24.82;40.74
79075;BME280;68476;42.710;23.388;2023-07-29T08:16:09;95433.81;;;24.97;40.16
79075;BME280;68476;42.710;23.388;2023-07-29T08:18:34;95432.53;;;25.21;38.77
79075;BME280;68476;42.710;23.388;2023-07-29T08:21:00;95425.47;;;25.23;39.33
79075;BME280;68476;42.710;23.388;2023-07-29T08:23:33;95431.25;;;25.27;38.67
79075;BME280;68476;42.710;23.388;2023-07-29T08:26:00;95433.56;;;25.43;38.70
79075;BME280;68476;42.710;23.388;2023-07-29T08:28:28;95436.50;;;25.37;38.26
79075;BME280;68476;42.710;23.388;2023-07-29T08:30:54;95430.94;;;25.73;37.43
79075;BME280;68476;42.710;23.388;2023-07-29T08:33:19;95423.22;;;25.52;37.67
79075;BME280;68476;42.710;23.388;2023-07-29T08:35:44;95421.19;;;25.96;37.19
79075;BME280;68476;42.710;23.388;2023-07-29T08:38:10;95408.53;;;26.55;36.20
79075;BME280;68476;42.710;23.388;2023-07-29T08:40:37;95415.19;;;26.33;36.28
79075;BME280;68476;42.710;23.388;2023-07-29T08:43:07;95414.22;;;26.29;35.54
79075;BME280;68476;42.710;23.388;2023-07-29T08:45:36;95415.34;;;26.37;34.93
79075;BME280;68476;42.710;23.388;2023-07-29T08:48:08;95406.25;;;26.10;34.59
79075;BME280;68476;42.710;23.388;2023-07-29T08:50:35;95407.22;;;26.14;33.16
79075;BME280;68476;42.710;23.388;2023-07-29T08:53:04;95403.72;;;26.65;33.21
79075;BME280;68476;42.710;23.388;2023-07-29T08:55:30;95396.84;;;26.92;32.85
79075;BME280;68476;42.710;23.388;2023-07-29T08:57:57;95392.00;;;26.80;33.41
79075;BME280;68476;42.710;23.388;2023-07-29T09:00:23;95395.59;;;26.81;33.12
79075;BME280;68476;42.710;23.388;2023-07-29T09:02:49;95396.63;;;26.67;33.10
79075;BME280;68476;42.710;23.388;2023-07-29T09:05:14;95392.28;;;26.87;32.31
79075;BME280;68476;42.710;23.388;2023-07-29T09:07:40;95382.97;;;27.26;29.45
79075;BME280;68476;42.710;23.388;2023-07-29T09:10:08;95382.66;;;27.18;30.58
79075;BME280;68476;42.710;23.388;2023-07-29T09:12:35;95389.13;;;26.89;29.67
79075;BME280;68476;42.710;23.388;2023-07-29T09:15:01;95387.25;;;27.02;30.22
79075;BME280;68476;42.710;23.388;2023-07-29T09:17:26;95390.63;;;27.29;29.98
79075;BME280;68476;42.710;23.388;2023-07-29T09:19:56;95382.66;;;27.40;30.44
79075;BME280;68476;42.710;23.388;2023-07-29T09:22:21;95381.53;;;27.62;30.35
79075;BME280;68476;42.710;23.388;2023-07-29T09:24:47;95379.69;;;27.78;30.17
79075;BME280;68476;42.710;23.388;2023-07-29T09:27:30;95370.13;;;28.13;29.83
79075;BME280;68476;42.710;23.388;2023-07-29T09:29:58;95361.56;;;27.97;29.84
79075;BME280;68476;42.710;23.388;2023-07-29T09:32:24;95362.34;;;28.31;29.26
79075;BME280;68476;42.710;23.388;2023-07-29T09:34:51;95358.03;;;28.58;28.84
79075;BME280;68476;42.710;23.388;2023-07-29T09:37:23;95360.34;;;28.44;28.79
79075;BME280;68476;42.710;23.388;2023-07-29T09:39:49;95360.56;;;28.64;28.59
79075;BME280;68476;42.710;23.388;2023-07-29T09:42:22;95350.69;;;28.79;28.68
79075;BME280;68476;42.710;23.388;2023-07-29T09:44:50;95355.81;;;28.77;28.36
79075;BME280;68476;42.710;23.388;2023-07-29T09:47:23;95344.81;;;28.96;28.16
79075;BME280;68476;42.710;23.388;2023-07-29T09:49:52;95340.03;;;29.66;26.70
79075;BME280;68476;42.710;23.388;2023-07-29T09:52:22;95342.72;;;28.56;28.05
79075;BME280;68476;42.710;23.388;2023-07-29T09:54:48;95341.88;;;29.05;28.17
79075;BME280;68476;42.710;23.388;2023-07-29T09:57:15;95341.34;;;28.74;28.20
79075;BME280;68476;42.710;23.388;2023-07-29T09:59:42;95342.59;;;29.30;27.70
79075;BME280;68476;42.710;23.388;2023-07-29T10:02:16;95340.19;;;29.57;26.81
79075;BME280;68476;42.710;23.388;2023-07-29T10:04:42;95339.66;;;29.67;26.65
79075;BME280;68476;42.710;23.388;2023-07-29T10:07:09;95331.81;;;30.66;25.16
79075;BME280;68476;42.710;23.388;2023-07-29T10:09:36;95339.44;;;29.73;26.29
79075;BME280;68476;42.710;23.388;2023-07-29T10:12:04;95331.53;;;30.07;24.97
79075;BME280;68476;42.710;23.388;2023-07-29T10:14:31;95328.78;;;29.94;24.83
79075;BME280;68476;42.710;23.388;2023-07-29T10:16:57;95333.44;;;30.67;23.98
79075;BME280;68476;42.710;23.388;2023-07-29T10:19:24;95324.56;;;30.33;23.88
79075;BME280;68476;42.710;23.388;2023-07-29T10:21:51;95330.06;;;29.97;24.10
79075;BME280;68476;42.710;23.388;2023-07-29T10:24:19;95315.47;;;30.23;21.81
79075;BME280;68476;42.710;23.388;2023-07-29T10:26:49;95310.28;;;30.41;23.40
79075;BME280;68476;42.710;23.388;2023-07-29T10:29:19;95312.78;;;29.82;24.03
79075;BME280;68476;42.710;23.388;2023-07-29T10:31:45;95304.69;;;30.09;23.28
79075;BME280;68476;42.710;23.388;2023-07-29T10:34:12;95294.88;;;30.51;23.28
79075;BME280;68476;42.710;23.388;2023-07-29T10:36:39;95294.28;;;31.52;22.34
79075;BME280;68476;42.710;23.388;2023-07-29T10:39:07;95286.16;;;34.72;19.07
79075;BME280;68476;42.710;23.388;2023-07-29T10:41:55;95285.47;;;37.52;17.03
79075;BME280;68476;42.710;23.388;2023-07-29T10:47:15;95279.13;;;37.00;16.69
79075;BME280;68476;42.710;23.388;2023-07-29T10:49:45;95279.50;;;37.10;16.32
79075;BME280;68476;42.710;23.388;2023-07-29T10:52:39;95277.00;;;38.15;15.37
79075;BME280;68476;42.710;23.388;2023-07-29T10:55:23;95274.25;;;38.01;15.47
79075;BME280;68476;42.710;23.388;2023-07-29T10:57:49;95270.28;;;39.66;14.41
79075;BME280;68476;42.710;23.388;2023-07-29T11:00:15;95267.03;;;37.85;15.90
79075;BME280;68476;42.710;23.388;2023-07-29T11:02:41;95264.97;;;39.99;14.63
79075;BME280;68476;42.710;23.388;2023-07-29T11:05:08;95265.06;;;38.88;15.77
79075;BME280;68476;42.710;23.388;2023-07-29T11:08:03;95255.38;;;39.54;14.80
79075;BME280;68476;42.710;23.388;2023-07-29T11:10:44;95251.19;;;39.63;14.79
79075;BME280;68476;42.710;23.388;2023-07-29T11:13:10;95255.66;;;39.29;14.83
79075;BME280;68476;42.710;23.388;2023-07-29T11:15:38;95252.25;;;39.45;14.68
79075;BME280;68476;42.710;23.388;2023-07-29T11:18:05;95245.13;;;41.34;13.11
79075;BME280;68476;42.710;23.388;2023-07-29T11:20:34;95251.06;;;40.79;13.14
79075;BME280;68476;42.710;23.388;2023-07-29T11:23:00;95249.72;;;41.88;13.09
79075;BME280;68476;42.710;23.388;2023-07-29T11:25:28;95255.69;;;40.46;13.55
79075;BME280;68476;42.710;23.388;2023-07-29T11:27:56;95249.72;;;41.08;13.30
79075;BME280;68476;42.710;23.388;2023-07-29T11:30:22;95249.41;;;39.07;14.10
79075;BME280;68476;42.710;23.388;2023-07-29T11:32:57;95249.59;;;40.20;12.61
79075;BME280;68476;42.710;23.388;2023-07-29T11:35:23;95250.63;;;40.57;11.78
79075;BME280;68476;42.710;23.388;2023-07-29T11:37:52;95250.81;;;40.70;12.27
79075;BME280;68476;42.710;23.388;2023-07-29T11:40:19;95248.94;;;40.60;12.63
79075;BME280;68476;42.710;23.388;2023-07-29T11:42:46;95245.41;;;40.52;12.55
79075;BME280;68476;42.710;23.388;2023-07-29T11:45:13;95239.25;;;40.77;12.14
79075;BME280;68476;42.710;23.388;2023-07-29T11:47:39;95239.75;;;41.97;10.74
79075;BME280;68476;42.710;23.388;2023-07-29T11:50:09;95233.78;;;40.12;12.27
79075;BME280;68476;42.710;23.388;2023-07-29T11:52:36;95232.03;;;43.09;10.19
79075;BME280;68476;42.710;23.388;2023-07-29T11:55:03;95225.47;;;42.63;9.95
79075;BME280;68476;42.710;23.388;2023-07-29T11:57:37;95228.66;;;41.99;10.10
79075;BME280;68476;42.710;23.388;2023-07-29T12:00:07;95220.22;;;41.15;10.94
79075;BME280;68476;42.710;23.388;2023-07-29T12:02:35;95224.63;;;39.38;11.09
79075;BME280;68476;42.710;23.388;2023-07-29T12:05:03;95216.66;;;40.39;10.68
79075;BME280;68476;42.710;23.388;2023-07-29T12:07:29;95213.00;;;40.11;11.33
79075;BME280;68476;42.710;23.388;2023-07-29T12:09:55;95202.41;;;41.84;9.96
79075;BME280;68476;42.710;23.388;2023-07-29T12:12:22;95208.59;;;42.98;9.39
79075;BME280;68476;42.710;23.388;2023-07-29T12:14:47;95202.41;;;41.27;10.97
79075;BME280;68476;42.710;23.388;2023-07-29T12:17:13;95200.84;;;43.96;9.13
79075;BME280;68476;42.710;23.388;2023-07-29T12:19:39;95197.50;;;41.84;10.04
79075;BME280;68476;42.710;23.388;2023-07-29T12:22:10;95192.09;;;42.56;9.77
79075;BME280;68476;42.710;23.388;2023-07-29T12:24:40;95193.31;;;43.18;9.99
79075;BME280;68476;42.710;23.388;2023-07-29T12:27:11;95185.41;;;42.79;10.41
79075;BME280;68476;42.710;23.388;2023-07-29T12:29:41;95184.81;;;42.85;9.98
79075;BME280;68476;42.710;23.388;2023-07-29T12:32:07;95190.09;;;41.10;11.10
79075;BME280;68476;42.710;23.388;2023-07-29T12:34:33;95192.13;;;39.63;12.33
79075;BME280;68476;42.710;23.388;2023-07-29T12:37:02;95182.66;;;41.16;11.62
79075;BME280;68476;42.710;23.388;2023-07-29T12:39:31;95184.84;;;41.05;11.35
79075;BME280;68476;42.710;23.388;2023-07-29T12:41:59;95176.06;;;42.59;9.94
79075;BME280;68476;42.710;23.388;2023-07-29T12:44:33;95176.44;;;40.97;11.04
79075;BME280;68476;42.710;23.388;2023-07-29T12:47:04;95174.50;;;40.71;11.10
79075;BME280;68476;42.710;23.388;2023-07-29T12:49:30;95170.56;;;42.18;10.71
79075;BME280;68476;42.710;23.388;2023-07-29T12:51:56;95178.22;;;41.32;11.36
79075;BME280;68476;42.710;23.388;2023-07-29T12:54:22;95177.75;;;39.70;11.49
79075;BME280;68476;42.710;23.388;2023-07-29T12:56:47;95176.84;;;37.08;13.79